To NAV CANADA Home Page Login to a new session Search on AWWS site Disclaimer Vers la page française équivalente Tips FAQ What's new on the site To the Forecasts and Observations / NOTAM section To "File a Flight Plan" website Publications and other links Update of the User's profile FIC Telephone Numbers My Weather Data Folder Route Weather Data Regional Weather Data Local Weather Data To the Forecasts and Observations / NOTAM section
Request Generated 04/24/2019 at 16:12:40 UTC . Weather information available at that time is displayed.

METAR/TAF

SIOUX LOOKOUT/ON    

METAR CYXL 241600Z 25010KT 200V260 15SM BKN078 BKN230 14/04 A2958 RMK AC5CI2 ACC ASOCTD SLP028 DENSITY ALT 1900FT=
METAR CYXL 241500Z 20008KT 180V240 15SM FEW060 SCT090 BKN210 13/05 A2960 RMK CU2AC1CS2 SLP033 DENSITY ALT 1700FT=
METAR CYXL 241400Z 16006KT 15SM FEW090 SCT150 BKN210 09/03 A2962 RMK AC2AC2CI2 SLP042=

TAF CYXL 241338Z 2414/2502 16006KT P6SM SCT080 BKN160
FM241700 23009KT P6SM BKN100 TEMPO 2417/2424 P6SM -SHRA
FM250000 29006KT P6SM -SHRA BKN070 TEMPO 2500/2502 6SM -SHRA VCTS
BR SCT030 BKN060CB
RMK NXT FCST BY 242000Z=
Your time UTC time
Weather data provided by Environment Canada and NAV CANADA